sensor_id;sensor_type;location;lat;lon;timestamp;P1;durP1;ratioP1;P2;durP2;ratioP2
28174;SDS011;59417;44.788;10.334;2023-03-12T00:01:19;53.30;;;34.38;;
28174;SDS011;59417;44.788;10.334;2023-03-12T00:03:46;53.15;;;35.08;;
28174;SDS011;59417;44.788;10.334;2023-03-12T00:06:13;56.92;;;34.10;;
28174;SDS011;59417;44.788;10.334;2023-03-12T00:08:38;53.38;;;33.08;;
28174;SDS011;59417;44.788;10.334;2023-03-12T00:11:06;50.05;;;33.03;;
28174;SDS011;59417;44.788;10.334;2023-03-12T00:13:32;53.45;;;32.60;;
28174;SDS011;59417;44.788;10.334;2023-03-12T00:16:02;49.70;;;33.40;;
28174;SDS011;59417;44.788;10.334;2023-03-12T00:18:32;52.22;;;33.33;;
28174;SDS011;59417;44.788;10.334;2023-03-12T00:20:57;50.30;;;33.50;;
28174;SDS011;59417;44.788;10.334;2023-03-12T00:23:23;56.75;;;35.75;;
28174;SDS011;59417;44.788;10.334;2023-03-12T00:25:48;52.63;;;34.08;;
28174;SDS011;59417;44.788;10.334;2023-03-12T00:28:14;55.67;;;34.78;;
28174;SDS011;59417;44.788;10.334;2023-03-12T00:30:39;50.78;;;33.28;;
28174;SDS011;59417;44.788;10.334;2023-03-12T00:33:05;51.15;;;33.78;;
28174;SDS011;59417;44.788;10.334;2023-03-12T00:35:30;53.25;;;34.47;;
28174;SDS011;59417;44.788;10.334;2023-03-12T00:37:56;59.28;;;35.22;;
28174;SDS011;59417;44.788;10.334;2023-03-12T00:40:22;49.45;;;34.08;;
28174;SDS011;59417;44.788;10.334;2023-03-12T00:42:48;55.08;;;33.78;;
28174;SDS011;59417;44.788;10.334;2023-03-12T00:45:13;50.75;;;32.63;;
28174;SDS011;59417;44.788;10.334;2023-03-12T00:47:39;49.03;;;34.03;;
28174;SDS011;59417;44.788;10.334;2023-03-12T00:50:04;49.75;;;32.22;;
28174;SDS011;59417;44.788;10.334;2023-03-12T00:52:31;50.65;;;32.67;;
28174;SDS011;59417;44.788;10.334;2023-03-12T00:54:56;47.53;;;29.58;;
28174;SDS011;59417;44.788;10.334;2023-03-12T00:57:23;41.88;;;29.08;;
28174;SDS011;59417;44.788;10.334;2023-03-12T00:59:49;46.22;;;30.02;;
28174;SDS011;59417;44.788;10.334;2023-03-12T01:02:14;46.78;;;29.50;;
28174;SDS011;59417;44.788;10.334;2023-03-12T01:04:40;43.97;;;28.90;;
28174;SDS011;59417;44.788;10.334;2023-03-12T01:07:06;42.00;;;29.02;;
28174;SDS011;59417;44.788;10.334;2023-03-12T01:09:31;45.47;;;29.73;;
28174;SDS011;59417;44.788;10.334;2023-03-12T01:11:57;49.08;;;28.60;;
28174;SDS011;59417;44.788;10.334;2023-03-12T01:14:23;48.92;;;29.45;;
28174;SDS011;59417;44.788;10.334;2023-03-12T01:16:48;44.92;;;28.17;;
28174;SDS011;59417;44.788;10.334;2023-03-12T01:19:14;49.17;;;29.75;;
28174;SDS011;59417;44.788;10.334;2023-03-12T01:21:40;49.63;;;28.02;;
28174;SDS011;59417;44.788;10.334;2023-03-12T01:24:06;51.92;;;28.25;;
28174;SDS011;59417;44.788;10.334;2023-03-12T01:26:31;45.95;;;28.45;;
28174;SDS011;59417;44.788;10.334;2023-03-12T01:28:57;45.72;;;28.92;;
28174;SDS011;59417;44.788;10.334;2023-03-12T01:31:23;45.25;;;29.58;;
28174;SDS011;59417;44.788;10.334;2023-03-12T01:33:49;44.33;;;27.23;;
28174;SDS011;59417;44.788;10.334;2023-03-12T01:36:18;41.40;;;25.60;;
28174;SDS011;59417;44.788;10.334;2023-03-12T01:38:52;47.70;;;27.45;;
28174;SDS011;59417;44.788;10.334;2023-03-12T01:41:19;46.45;;;26.50;;
28174;SDS011;59417;44.788;10.334;2023-03-12T01:43:47;41.47;;;25.75;;
28174;SDS011;59417;44.788;10.334;2023-03-12T01:46:27;41.33;;;27.48;;
28174;SDS011;59417;44.788;10.334;2023-03-12T01:51:39;42.60;;;27.50;;
28174;SDS011;59417;44.788;10.334;2023-03-12T01:54:12;45.33;;;26.10;;
28174;SDS011;59417;44.788;10.334;2023-03-12T01:57:12;40.47;;;24.33;;
28174;SDS011;59417;44.788;10.334;2023-03-12T01:59:46;42.88;;;26.25;;
28174;SDS011;59417;44.788;10.334;2023-03-12T02:02:16;38.08;;;24.30;;
28174;SDS011;59417;44.788;10.334;2023-03-12T02:04:44;38.00;;;24.40;;
28174;SDS011;59417;44.788;10.334;2023-03-12T02:07:14;32.28;;;21.80;;
28174;SDS011;59417;44.788;10.334;2023-03-12T02:09:42;38.97;;;24.23;;
28174;SDS011;59417;44.788;10.334;2023-03-12T02:12:11;32.35;;;22.20;;
28174;SDS011;59417;44.788;10.334;2023-03-12T02:14:38;38.85;;;22.75;;
28174;SDS011;59417;44.788;10.334;2023-03-12T02:17:04;35.17;;;23.30;;
28174;SDS011;59417;44.788;10.334;2023-03-12T02:22:22;36.58;;;21.88;;
28174;SDS011;59417;44.788;10.334;2023-03-12T02:27:17;32.35;;;21.67;;
28174;SDS011;59417;44.788;10.334;2023-03-12T02:29:45;29.67;;;21.52;;
28174;SDS011;59417;44.788;10.334;2023-03-12T02:32:25;34.97;;;21.20;;
28174;SDS011;59417;44.788;10.334;2023-03-12T02:34:55;32.78;;;21.40;;
28174;SDS011;59417;44.788;10.334;2023-03-12T02:37:21;38.72;;;20.60;;
28174;SDS011;59417;44.788;10.334;2023-03-12T02:39:50;29.52;;;19.75;;
28174;SDS011;59417;44.788;10.334;2023-03-12T02:42:22;34.90;;;19.73;;
28174;SDS011;59417;44.788;10.334;2023-03-12T02:44:48;29.67;;;18.98;;
28174;SDS011;59417;44.788;10.334;2023-03-12T02:47:16;35.67;;;19.67;;
28174;SDS011;59417;44.788;10.334;2023-03-12T02:49:41;29.50;;;18.13;;
28174;SDS011;59417;44.788;10.334;2023-03-12T02:52:07;32.88;;;19.15;;
28174;SDS011;59417;44.788;10.334;2023-03-12T02:54:34;32.75;;;19.30;;
28174;SDS011;59417;44.788;10.334;2023-03-12T02:56:59;33.13;;;17.88;;
28174;SDS011;59417;44.788;10.334;2023-03-12T02:59:27;34.97;;;19.25;;
28174;SDS011;59417;44.788;10.334;2023-03-12T03:01:56;31.92;;;18.83;;
28174;SDS011;59417;44.788;10.334;2023-03-12T03:04:24;28.70;;;17.98;;
28174;SDS011;59417;44.788;10.334;2023-03-12T03:06:51;30.63;;;17.77;;
28174;SDS011;59417;44.788;10.334;2023-03-12T03:09:16;30.15;;;17.50;;
28174;SDS011;59417;44.788;10.334;2023-03-12T03:11:43;34.85;;;17.77;;
28174;SDS011;59417;44.788;10.334;2023-03-12T03:14:09;26.15;;;16.42;;
28174;SDS011;59417;44.788;10.334;2023-03-12T03:16:35;33.17;;;16.88;;
28174;SDS011;59417;44.788;10.334;2023-03-12T03:19:01;30.60;;;17.67;;
28174;SDS011;59417;44.788;10.334;2023-03-12T03:21:28;26.42;;;16.27;;
28174;SDS011;59417;44.788;10.334;2023-03-12T03:23:54;28.65;;;16.75;;
28174;SDS011;59417;44.788;10.334;2023-03-12T03:26:20;27.05;;;16.25;;
28174;SDS011;59417;44.788;10.334;2023-03-12T03:28:47;28.38;;;15.82;;
28174;SDS011;59417;44.788;10.334;2023-03-12T03:31:13;25.08;;;14.75;;
28174;SDS011;59417;44.788;10.334;2023-03-12T03:33:40;26.73;;;14.98;;
28174;SDS011;59417;44.788;10.334;2023-03-12T03:36:07;19.80;;;13.50;;
28174;SDS011;59417;44.788;10.334;2023-03-12T03:38:38;25.63;;;13.73;;
28174;SDS011;59417;44.788;10.334;2023-03-12T03:41:05;24.63;;;13.07;;
28174;SDS011;59417;44.788;10.334;2023-03-12T03:43:34;23.60;;;13.57;;
28174;SDS011;59417;44.788;10.334;2023-03-12T03:46:00;26.55;;;13.93;;
28174;SDS011;59417;44.788;10.334;2023-03-12T03:48:31;22.50;;;12.85;;
28174;SDS011;59417;44.788;10.334;2023-03-12T03:51:01;26.35;;;14.27;;
28174;SDS011;59417;44.788;10.334;2023-03-12T03:53:30;22.25;;;12.85;;
28174;SDS011;59417;44.788;10.334;2023-03-12T03:55:56;22.17;;;12.88;;
28174;SDS011;59417;44.788;10.334;2023-03-12T03:58:23;22.75;;;13.75;;
28174;SDS011;59417;44.788;10.334;2023-03-12T04:00:49;22.58;;;13.75;;
28174;SDS011;59417;44.788;10.334;2023-03-12T04:03:14;22.65;;;14.02;;
28174;SDS011;59417;44.788;10.334;2023-03-12T04:05:40;20.33;;;13.05;;
28174;SDS011;59417;44.788;10.334;2023-03-12T04:08:11;21.25;;;13.38;;
28174;SDS011;59417;44.788;10.334;2023-03-12T04:10:38;21.58;;;13.30;;
28174;SDS011;59417;44.788;10.334;2023-03-12T04:13:04;24.20;;;13.63;;
28174;SDS011;59417;44.788;10.334;2023-03-12T04:15:30;24.42;;;13.90;;
28174;SDS011;59417;44.788;10.334;2023-03-12T04:17:56;21.55;;;13.43;;
28174;SDS011;59417;44.788;10.334;2023-03-12T04:20:23;20.67;;;12.93;;
28174;SDS011;59417;44.788;10.334;2023-03-12T04:22:49;21.27;;;13.00;;
28174;SDS011;59417;44.788;10.334;2023-03-12T04:25:15;25.55;;;12.73;;
28174;SDS011;59417;44.788;10.334;2023-03-12T04:27:41;24.23;;;13.75;;
28174;SDS011;59417;44.788;10.334;2023-03-12T04:30:07;24.90;;;13.88;;
28174;SDS011;59417;44.788;10.334;2023-03-12T04:32:35;21.60;;;13.32;;
28174;SDS011;59417;44.788;10.334;2023-03-12T04:35:01;20.33;;;13.18;;
28174;SDS011;59417;44.788;10.334;2023-03-12T04:37:27;21.40;;;13.00;;
28174;SDS011;59417;44.788;10.334;2023-03-12T04:39:53;22.30;;;13.82;;
28174;SDS011;59417;44.788;10.334;2023-03-12T04:42:18;22.02;;;11.93;;
28174;SDS011;59417;44.788;10.334;2023-03-12T04:44:46;16.00;;;12.60;;
28174;SDS011;59417;44.788;10.334;2023-03-12T04:47:11;20.05;;;13.18;;
28174;SDS011;59417;44.788;10.334;2023-03-12T04:49:37;20.38;;;11.73;;
28174;SDS011;59417;44.788;10.334;2023-03-12T04:52:05;19.73;;;13.40;;
28174;SDS011;59417;44.788;10.334;2023-03-12T04:54:31;21.48;;;12.30;;
28174;SDS011;59417;44.788;10.334;2023-03-12T04:56:58;22.33;;;12.27;;
28174;SDS011;59417;44.788;10.334;2023-03-12T04:59:25;21.90;;;13.15;;
28174;SDS011;59417;44.788;10.334;2023-03-12T05:01:51;16.48;;;11.43;;
28174;SDS011;59417;44.788;10.334;2023-03-12T05:04:22;23.77;;;10.88;;
28174;SDS011;59417;44.788;10.334;2023-03-12T05:06:48;22.00;;;12.90;;
28174;SDS011;59417;44.788;10.334;2023-03-12T05:09:14;19.88;;;12.80;;
28174;SDS011;59417;44.788;10.334;2023-03-12T05:11:40;20.02;;;11.55;;
28174;SDS011;59417;44.788;10.334;2023-03-12T05:14:10;25.60;;;13.98;;
28174;SDS011;59417;44.788;10.334;2023-03-12T05:16:36;16.10;;;11.18;;
28174;SDS011;59417;44.788;10.334;2023-03-12T05:19:02;23.60;;;13.25;;
28174;SDS011;59417;44.788;10.334;2023-03-12T05:21:29;24.38;;;12.77;;
28174;SDS011;59417;44.788;10.334;2023-03-12T05:23:56;19.75;;;11.65;;
28174;SDS011;59417;44.788;10.334;2023-03-12T05:26:24;18.90;;;11.70;;
28174;SDS011;59417;44.788;10.334;2023-03-12T05:28:59;20.27;;;12.93;;
28174;SDS011;59417;44.788;10.334;2023-03-12T05:31:26;20.27;;;12.52;;
28174;SDS011;59417;44.788;10.334;2023-03-12T05:33:58;24.38;;;12.40;;
28174;SDS011;59417;44.788;10.334;2023-03-12T05:36:24;19.67;;;13.15;;
28174;SDS011;59417;44.788;10.334;2023-03-12T05:38:50;21.10;;;12.48;;
28174;SDS011;59417;44.788;10.334;2023-03-12T05:41:25;18.83;;;12.15;;
28174;SDS011;59417;44.788;10.334;2023-03-12T05:43:56;19.02;;;11.73;;
28174;SDS011;59417;44.788;10.334;2023-03-12T05:46:22;17.48;;;11.50;;
28174;SDS011;59417;44.788;10.334;2023-03-12T05:48:49;25.40;;;12.82;;
28174;SDS011;59417;44.788;10.334;2023-03-12T05:51:15;16.05;;;11.98;;
28174;SDS011;59417;44.788;10.334;2023-03-12T05:53:41;21.27;;;11.73;;
28174;SDS011;59417;44.788;10.334;2023-03-12T05:56:07;16.90;;;11.45;;
28174;SDS011;59417;44.788;10.334;2023-03-12T05:58:35;21.75;;;11.30;;
28174;SDS011;59417;44.788;10.334;2023-03-12T06:01:02;23.00;;;10.75;;
28174;SDS011;59417;44.788;10.334;2023-03-12T06:03:29;15.65;;;9.98;;
28174;SDS011;59417;44.788;10.334;2023-03-12T06:05:54;20.52;;;11.10;;
28174;SDS011;59417;44.788;10.334;2023-03-12T06:08:22;18.00;;;11.15;;
28174;SDS011;59417;44.788;10.334;2023-03-12T06:10:49;19.83;;;11.27;;
28174;SDS011;59417;44.788;10.334;2023-03-12T06:13:20;17.05;;;11.00;;
28174;SDS011;59417;44.788;10.334;2023-03-12T06:15:47;15.43;;;10.52;;
28174;SDS011;59417;44.788;10.334;2023-03-12T06:18:13;18.65;;;12.05;;
28174;SDS011;59417;44.788;10.334;2023-03-12T06:20:39;17.00;;;11.93;;
28174;SDS011;59417;44.788;10.334;2023-03-12T06:23:05;18.10;;;11.23;;
28174;SDS011;59417;44.788;10.334;2023-03-12T06:25:31;19.10;;;11.32;;
28174;SDS011;59417;44.788;10.334;2023-03-12T06:27:56;18.65;;;10.25;;
28174;SDS011;59417;44.788;10.334;2023-03-12T06:30:22;15.90;;;9.90;;
28174;SDS011;59417;44.788;10.334;2023-03-12T06:32:48;11.50;;;9.13;;
28174;SDS011;59417;44.788;10.334;2023-03-12T06:35:13;13.50;;;8.90;;
28174;SDS011;59417;44.788;10.334;2023-03-12T06:37:39;13.23;;;8.50;;
28174;SDS011;59417;44.788;10.334;2023-03-12T06:40:04;14.65;;;8.10;;
28174;SDS011;59417;44.788;10.334;2023-03-12T06:42:34;16.10;;;8.52;;
28174;SDS011;59417;44.788;10.334;2023-03-12T06:45:00;13.65;;;8.00;;
28174;SDS011;59417;44.788;10.334;2023-03-12T06:47:25;15.80;;;8.00;;
28174;SDS011;59417;44.788;10.334;2023-03-12T06:49:51;12.43;;;7.57;;
28174;SDS011;59417;44.788;10.334;2023-03-12T06:52:16;15.02;;;6.30;;
28174;SDS011;59417;44.788;10.334;2023-03-12T06:54:42;9.98;;;6.97;;
28174;SDS011;59417;44.788;10.334;2023-03-12T06:57:07;13.20;;;6.88;;
28174;SDS011;59417;44.788;10.334;2023-03-12T06:59:33;16.05;;;7.15;;
28174;SDS011;59417;44.788;10.334;2023-03-12T07:01:59;9.55;;;6.57;;
28174;SDS011;59417;44.788;10.334;2023-03-12T07:04:24;9.65;;;6.63;;
28174;SDS011;59417;44.788;10.334;2023-03-12T07:06:50;12.55;;;6.63;;
28174;SDS011;59417;44.788;10.334;2023-03-12T07:09:16;8.57;;;5.90;;
28174;SDS011;59417;44.788;10.334;2023-03-12T07:11:42;10.38;;;7.10;;
28174;SDS011;59417;44.788;10.334;2023-03-12T07:14:08;13.65;;;7.45;;
28174;SDS011;59417;44.788;10.334;2023-03-12T07:16:34;8.07;;;6.38;;
28174;SDS011;59417;44.788;10.334;2023-03-12T07:19:00;11.57;;;7.28;;
28174;SDS011;59417;44.788;10.334;2023-03-12T07:21:25;17.63;;;7.82;;
28174;SDS011;59417;44.788;10.334;2023-03-12T07:23:51;13.18;;;7.00;;
28174;SDS011;59417;44.788;10.334;2023-03-12T07:26:17;11.20;;;7.03;;
28174;SDS011;59417;44.788;10.334;2023-03-12T07:28:44;11.25;;;6.63;;
28174;SDS011;59417;44.788;10.334;2023-03-12T07:31:09;14.63;;;7.40;;
28174;SDS011;59417;44.788;10.334;2023-03-12T07:33:35;13.85;;;6.63;;
28174;SDS011;59417;44.788;10.334;2023-03-12T07:36:01;9.65;;;7.18;;
28174;SDS011;59417;44.788;10.334;2023-03-12T07:38:27;10.27;;;7.13;;
28174;SDS011;59417;44.788;10.334;2023-03-12T07:40:53;10.57;;;6.18;;
28174;SDS011;59417;44.788;10.334;2023-03-12T07:43:21;10.90;;;6.13;;
28174;SDS011;59417;44.788;10.334;2023-03-12T07:45:47;11.00;;;5.72;;
28174;SDS011;59417;44.788;10.334;2023-03-12T07:48:14;9.55;;;5.85;;
28174;SDS011;59417;44.788;10.334;2023-03-12T07:50:39;12.38;;;6.22;;
28174;SDS011;59417;44.788;10.334;2023-03-12T07:53:05;12.85;;;6.60;;
28174;SDS011;59417;44.788;10.334;2023-03-12T07:55:31;11.77;;;6.82;;
28174;SDS011;59417;44.788;10.334;2023-03-12T07:57:58;8.45;;;5.90;;
28174;SDS011;59417;44.788;10.334;2023-03-12T08:00:25;13.63;;;6.43;;
28174;SDS011;59417;44.788;10.334;2023-03-12T08:02:51;9.88;;;6.72;;
28174;SDS011;59417;44.788;10.334;2023-03-12T08:05:16;16.73;;;6.95;;
28174;SDS011;59417;44.788;10.334;2023-03-12T08:07:42;8.88;;;5.93;;
28174;SDS011;59417;44.788;10.334;2023-03-12T08:10:09;12.43;;;7.22;;
28174;SDS011;59417;44.788;10.334;2023-03-12T08:12:35;10.43;;;7.00;;
28174;SDS011;59417;44.788;10.334;2023-03-12T08:15:04;10.57;;;7.00;;
28174;SDS011;59417;44.788;10.334;2023-03-12T08:17:30;7.32;;;5.72;;
28174;SDS011;59417;44.788;10.334;2023-03-12T08:19:56;10.57;;;6.53;;
28174;SDS011;59417;44.788;10.334;2023-03-12T08:22:21;10.68;;;6.43;;
28174;SDS011;59417;44.788;10.334;2023-03-12T08:24:47;9.35;;;6.65;;
28174;SDS011;59417;44.788;10.334;2023-03-12T08:27:13;12.35;;;6.15;;
28174;SDS011;59417;44.788;10.334;2023-03-12T08:29:38;12.32;;;5.90;;
28174;SDS011;59417;44.788;10.334;2023-03-12T08:32:05;11.52;;;6.38;;
28174;SDS011;59417;44.788;10.334;2023-03-12T08:34:31;13.35;;;5.82;;
28174;SDS011;59417;44.788;10.334;2023-03-12T08:36:57;9.93;;;5.88;;
28174;SDS011;59417;44.788;10.334;2023-03-12T08:39:23;14.18;;;5.45;;
28174;SDS011;59417;44.788;10.334;2023-03-12T08:41:49;12.45;;;5.75;;
28174;SDS011;59417;44.788;10.334;2023-03-12T08:44:19;6.35;;;4.95;;
28174;SDS011;59417;44.788;10.334;2023-03-12T08:46:46;7.63;;;5.18;;
28174;SDS011;59417;44.788;10.334;2023-03-12T08:49:11;7.72;;;4.88;;
28174;SDS011;59417;44.788;10.334;2023-03-12T08:51:37;12.13;;;5.00;;
28174;SDS011;59417;44.788;10.334;2023-03-12T08:54:03;9.57;;;5.40;;
28174;SDS011;59417;44.788;10.334;2023-03-12T08:56:29;9.88;;;5.05;;
28174;SDS011;59417;44.788;10.334;2023-03-12T08:58:57;14.60;;;6.13;;
28174;SDS011;59417;44.788;10.334;2023-03-12T09:01:23;16.65;;;5.53;;
28174;SDS011;59417;44.788;10.334;2023-03-12T09:03:49;9.55;;;5.28;;
28174;SDS011;59417;44.788;10.334;2023-03-12T09:06:16;12.05;;;5.18;;
28174;SDS011;59417;44.788;10.334;2023-03-12T09:08:43;10.15;;;5.35;;
28174;SDS011;59417;44.788;10.334;2023-03-12T09:11:11;9.65;;;4.68;;
28174;SDS011;59417;44.788;10.334;2023-03-12T09:13:38;11.13;;;4.97;;
28174;SDS011;59417;44.788;10.334;2023-03-12T09:16:04;11.73;;;5.03;;
28174;SDS011;59417;44.788;10.334;2023-03-12T09:18:31;13.70;;;4.85;;
28174;SDS011;59417;44.788;10.334;2023-03-12T09:20:57;13.00;;;5.45;;
28174;SDS011;59417;44.788;10.334;2023-03-12T09:23:23;8.07;;;5.35;;
28174;SDS011;59417;44.788;10.334;2023-03-12T09:25:49;7.85;;;4.60;;
28174;SDS011;59417;44.788;10.334;2023-03-12T09:28:15;9.95;;;4.45;;
28174;SDS011;59417;44.788;10.334;2023-03-12T09:30:41;8.80;;;4.95;;
28174;SDS011;59417;44.788;10.334;2023-03-12T09:33:07;8.15;;;5.05;;
28174;SDS011;59417;44.788;10.334;2023-03-12T09:35:33;9.68;;;4.97;;
28174;SDS011;59417;44.788;10.334;2023-03-12T09:37:59;8.73;;;4.43;;
28174;SDS011;59417;44.788;10.334;2023-03-12T09:40:26;11.27;;;4.95;;
28174;SDS011;59417;44.788;10.334;2023-03-12T09:42:54;8.68;;;4.20;;
28174;SDS011;59417;44.788;10.334;2023-03-12T09:45:28;13.93;;;4.35;;
28174;SDS011;59417;44.788;10.334;2023-03-12T09:47:58;7.60;;;4.45;;
28174;SDS011;59417;44.788;10.334;2023-03-12T09:50:30;9.38;;;4.60;;
28174;SDS011;59417;44.788;10.334;2023-03-12T09:55:49;10.40;;;4.60;;
28174;SDS011;59417;44.788;10.334;2023-03-12T10:06:55;8.95;;;4.82;;
28174;SDS011;59417;44.788;10.334;2023-03-12T10:17:29;9.13;;;4.65;;
28174;SDS011;59417;44.788;10.334;2023-03-12T10:20:13;13.77;;;5.10;;
28174;SDS011;59417;44.788;10.334;2023-03-12T10:25:52;15.85;;;5.05;;
28174;SDS011;59417;44.788;10.334;2023-03-12T10:28:33;14.55;;;5.60;;
28174;SDS011;59417;44.788;10.334;2023-03-12T10:31:15;10.02;;;5.22;;
28174;SDS011;59417;44.788;10.334;2023-03-12T10:36:15;16.52;;;5.63;;
28174;SDS011;59417;44.788;10.334;2023-03-12T10:38:43;11.68;;;5.35;;
28174;SDS011;59417;44.788;10.334;2023-03-12T10:41:14;11.55;;;4.78;;
28174;SDS011;59417;44.788;10.334;2023-03-12T10:43:48;15.00;;;5.10;;
28174;SDS011;59417;44.788;10.334;2023-03-12T10:48:39;10.82;;;6.05;;
28174;SDS011;59417;44.788;10.334;2023-03-12T10:51:07;14.13;;;6.07;;
28174;SDS011;59417;44.788;10.334;2023-03-12T10:53:45;16.40;;;5.55;;
28174;SDS011;59417;44.788;10.334;2023-03-12T10:56:16;15.50;;;6.13;;
28174;SDS011;59417;44.788;10.334;2023-03-12T10:58:46;14.52;;;5.30;;
28174;SDS011;59417;44.788;10.334;2023-03-12T11:03:47;11.73;;;6.15;;
28174;SDS011;59417;44.788;10.334;2023-03-12T11:06:27;20.70;;;6.00;;
28174;SDS011;59417;44.788;10.334;2023-03-12T11:09:05;13.98;;;6.45;;
28174;SDS011;59417;44.788;10.334;2023-03-12T11:11:39;17.98;;;5.65;;
28174;SDS011;59417;44.788;10.334;2023-03-12T11:14:25;15.90;;;5.93;;
28174;SDS011;59417;44.788;10.334;2023-03-12T11:16:52;13.07;;;5.97;;
28174;SDS011;59417;44.788;10.334;2023-03-12T11:19:29;11.15;;;5.80;;
28174;SDS011;59417;44.788;10.334;2023-03-12T11:22:01;13.75;;;6.25;;
28174;SDS011;59417;44.788;10.334;2023-03-12T11:24:28;16.60;;;6.10;;
28174;SDS011;59417;44.788;10.334;2023-03-12T11:29:56;16.58;;;6.85;;
28174;SDS011;59417;44.788;10.334;2023-03-12T11:35:00;11.30;;;6.15;;
28174;SDS011;59417;44.788;10.334;2023-03-12T11:43:29;17.02;;;6.50;;
28174;SDS011;59417;44.788;10.334;2023-03-12T11:57:41;11.73;;;5.72;;
28174;SDS011;59417;44.788;10.334;2023-03-12T12:06:03;12.35;;;6.72;;
28174;SDS011;59417;44.788;10.334;2023-03-12T12:11:38;19.35;;;6.57;;
28174;SDS011;59417;44.788;10.334;2023-03-12T12:25:21;16.17;;;7.50;;
28174;SDS011;59417;44.788;10.334;2023-03-12T12:28:13;13.55;;;6.88;;
28174;SDS011;59417;44.788;10.334;2023-03-12T12:33:43;17.40;;;7.03;;
28174;SDS011;59417;44.788;10.334;2023-03-12T12:36:23;19.25;;;6.15;;
28174;SDS011;59417;44.788;10.334;2023-03-12T12:38:57;15.60;;;6.53;;
28174;SDS011;59417;44.788;10.334;2023-03-12T12:41:34;16.42;;;6.80;;
28174;SDS011;59417;44.788;10.334;2023-03-12T12:44:21;19.10;;;7.68;;
28174;SDS011;59417;44.788;10.334;2023-03-12T12:46:56;17.02;;;7.30;;
28174;SDS011;59417;44.788;10.334;2023-03-12T12:49:48;16.55;;;7.50;;
28174;SDS011;59417;44.788;10.334;2023-03-12T12:52:19;26.27;;;7.25;;
28174;SDS011;59417;44.788;10.334;2023-03-12T12:57:48;16.65;;;7.05;;
28174;SDS011;59417;44.788;10.334;2023-03-12T13:02:49;9.63;;;6.45;;
28174;SDS011;59417;44.788;10.334;2023-03-12T13:05:19;14.30;;;7.18;;
28174;SDS011;59417;44.788;10.334;2023-03-12T13:07:50;17.92;;;6.95;;
28174;SDS011;59417;44.788;10.334;2023-03-12T13:12:57;17.02;;;7.10;;
28174;SDS011;59417;44.788;10.334;2023-03-12T13:20:27;14.40;;;8.18;;
28174;SDS011;59417;44.788;10.334;2023-03-12T13:28:33;15.60;;;6.50;;
28174;SDS011;59417;44.788;10.334;2023-03-12T13:31:01;12.77;;;6.32;;
28174;SDS011;59417;44.788;10.334;2023-03-12T13:33:47;10.73;;;6.65;;
28174;SDS011;59417;44.788;10.334;2023-03-12T13:38:56;14.55;;;6.45;;
28174;SDS011;59417;44.788;10.334;2023-03-12T13:41:39;15.35;;;7.78;;
28174;SDS011;59417;44.788;10.334;2023-03-12T13:52:19;16.33;;;6.93;;
28174;SDS011;59417;44.788;10.334;2023-03-12T13:57:44;12.73;;;6.28;;
28174;SDS011;59417;44.788;10.334;2023-03-12T14:03:17;10.07;;;5.78;;
28174;SDS011;59417;44.788;10.334;2023-03-12T14:05:50;9.60;;;6.60;;
28174;SDS011;59417;44.788;10.334;2023-03-12T14:11:08;15.27;;;6.72;;
28174;SDS011;59417;44.788;10.334;2023-03-12T14:17:13;11.90;;;6.13;;
28174;SDS011;59417;44.788;10.334;2023-03-12T14:19:42;13.23;;;5.80;;
28174;SDS011;59417;44.788;10.334;2023-03-12T14:22:11;11.40;;;5.97;;
28174;SDS011;59417;44.788;10.334;2023-03-12T14:24:53;13.68;;;6.53;;
28174;SDS011;59417;44.788;10.334;2023-03-12T14:27:26;11.30;;;6.00;;
28174;SDS011;59417;44.788;10.334;2023-03-12T14:30:00;10.77;;;5.63;;
28174;SDS011;59417;44.788;10.334;2023-03-12T14:32:45;12.02;;;6.50;;
28174;SDS011;59417;44.788;10.334;2023-03-12T14:40:20;10.90;;;6.35;;
28174;SDS011;59417;44.788;10.334;2023-03-12T14:42:49;10.38;;;5.72;;
28174;SDS011;59417;44.788;10.334;2023-03-12T14:45:19;14.32;;;6.18;;
28174;SDS011;59417;44.788;10.334;2023-03-12T14:47:50;13.48;;;5.82;;
28174;SDS011;59417;44.788;10.334;2023-03-12T14:50:28;10.93;;;5.68;;
28174;SDS011;59417;44.788;10.334;2023-03-12T14:53:10;10.02;;;5.78;;
28174;SDS011;59417;44.788;10.334;2023-03-12T14:55:56;16.02;;;6.03;;
28174;SDS011;59417;44.788;10.334;2023-03-12T14:58:23;15.27;;;5.68;;
28174;SDS011;59417;44.788;10.334;2023-03-12T15:00:57;12.00;;;6.25;;
28174;SDS011;59417;44.788;10.334;2023-03-12T15:03:25;13.40;;;5.20;;
28174;SDS011;59417;44.788;10.334;2023-03-12T15:05:52;11.52;;;5.70;;
28174;SDS011;59417;44.788;10.334;2023-03-12T15:08:18;12.45;;;5.63;;
28174;SDS011;59417;44.788;10.334;2023-03-12T15:10:53;10.48;;;5.20;;
28174;SDS011;59417;44.788;10.334;2023-03-12T15:13:21;12.00;;;5.13;;
28174;SDS011;59417;44.788;10.334;2023-03-12T15:15:50;10.40;;;5.22;;
28174;SDS011;59417;44.788;10.334;2023-03-12T15:18:18;13.27;;;5.22;;
28174;SDS011;59417;44.788;10.334;2023-03-12T15:20:55;13.43;;;5.50;;
28174;SDS011;59417;44.788;10.334;2023-03-12T15:23:23;9.93;;;5.85;;
28174;SDS011;59417;44.788;10.334;2023-03-12T15:28:37;7.03;;;4.95;;
28174;SDS011;59417;44.788;10.334;2023-03-12T15:31:14;9.43;;;4.95;;
28174;SDS011;59417;44.788;10.334;2023-03-12T15:33:44;9.90;;;5.40;;
28174;SDS011;59417;44.788;10.334;2023-03-12T15:38:45;12.05;;;4.90;;
28174;SDS011;59417;44.788;10.334;2023-03-12T15:41:20;15.93;;;6.28;;
28174;SDS011;59417;44.788;10.334;2023-03-12T15:43:56;12.45;;;5.68;;
28174;SDS011;59417;44.788;10.334;2023-03-12T15:46:24;10.15;;;5.15;;
28174;SDS011;59417;44.788;10.334;2023-03-12T15:48:55;9.63;;;5.10;;
28174;SDS011;59417;44.788;10.334;2023-03-12T15:54:01;10.50;;;5.80;;
28174;SDS011;59417;44.788;10.334;2023-03-12T15:56:29;8.90;;;4.90;;
28174;SDS011;59417;44.788;10.334;2023-03-12T15:58:58;13.40;;;5.85;;
28174;SDS011;59417;44.788;10.334;2023-03-12T16:01:25;14.27;;;5.97;;
28174;SDS011;59417;44.788;10.334;2023-03-12T16:03:52;9.63;;;5.75;;
28174;SDS011;59417;44.788;10.334;2023-03-12T16:06:22;8.70;;;5.32;;
28174;SDS011;59417;44.788;10.334;2023-03-12T16:08:54;12.85;;;5.63;;
28174;SDS011;59417;44.788;10.334;2023-03-12T16:11:25;13.15;;;5.22;;
28174;SDS011;59417;44.788;10.334;2023-03-12T16:13:57;9.60;;;4.80;;
28174;SDS011;59417;44.788;10.334;2023-03-12T16:16:37;10.25;;;5.60;;
28174;SDS011;59417;44.788;10.334;2023-03-12T16:19:07;10.27;;;5.32;;
28174;SDS011;59417;44.788;10.334;2023-03-12T16:21:35;7.85;;;4.88;;
28174;SDS011;59417;44.788;10.334;2023-03-12T16:24:01;12.82;;;5.28;;
28174;SDS011;59417;44.788;10.334;2023-03-12T16:26:26;11.20;;;5.45;;
28174;SDS011;59417;44.788;10.334;2023-03-12T16:28:52;11.18;;;5.18;;
28174;SDS011;59417;44.788;10.334;2023-03-12T16:31:17;21.35;;;6.35;;
28174;SDS011;59417;44.788;10.334;2023-03-12T16:33:43;12.52;;;5.10;;
28174;SDS011;59417;44.788;10.334;2023-03-12T16:36:15;8.80;;;5.25;;
28174;SDS011;59417;44.788;10.334;2023-03-12T16:38:43;8.98;;;5.53;;
28174;SDS011;59417;44.788;10.334;2023-03-12T16:41:14;8.43;;;4.80;;
28174;SDS011;59417;44.788;10.334;2023-03-12T16:43:43;9.40;;;5.65;;
28174;SDS011;59417;44.788;10.334;2023-03-12T16:46:14;12.23;;;5.45;;